sensor_id;sensor_type;location;lat;lon;timestamp;pressure;altitude;pressure_sealevel;temperature;humidity
46394;BME280;32099;53.588;10.176;2023-02-20T00:00:01;101681.69;;;5.70;79.33
46394;BME280;32099;53.588;10.176;2023-02-20T00:02:26;101683.41;;;5.71;79.20
46394;BME280;32099;53.588;10.176;2023-02-20T00:04:51;101677.25;;;5.69;79.16
46394;BME280;32099;53.588;10.176;2023-02-20T00:07:17;101670.47;;;5.75;79.34
46394;BME280;32099;53.588;10.176;2023-02-20T00:09:42;101662.84;;;5.80;78.94
46394;BME280;32099;53.588;10.176;2023-02-20T00:12:07;101660.13;;;5.80;79.12
46394;BME280;32099;53.588;10.176;2023-02-20T00:14:33;101652.72;;;5.82;78.96
46394;BME280;32099;53.588;10.176;2023-02-20T00:16:58;101643.50;;;5.85;79.06
46394;BME280;32099;53.588;10.176;2023-02-20T00:19:23;101635.38;;;5.85;79.08
46394;BME280;32099;53.588;10.176;2023-02-20T00:21:49;101631.06;;;5.82;79.31
46394;BME280;32099;53.588;10.176;2023-02-20T00:24:16;101619.13;;;5.85;79.25
46394;BME280;32099;53.588;10.176;2023-02-20T00:26:49;101618.25;;;5.84;79.20
46394;BME280;32099;53.588;10.176;2023-02-20T00:29:17;101614.13;;;5.80;79.61
46394;BME280;32099;53.588;10.176;2023-02-20T00:31:48;101596.28;;;5.78;79.37
46394;BME280;32099;53.588;10.176;2023-02-20T00:34:15;101584.66;;;5.87;79.71
46394;BME280;32099;53.588;10.176;2023-02-20T00:36:40;101578.97;;;5.90;79.62
46394;BME280;32099;53.588;10.176;2023-02-20T00:39:06;101567.03;;;5.93;79.41
46394;BME280;32099;53.588;10.176;2023-02-20T00:41:31;101559.78;;;5.93;79.62
46394;BME280;32099;53.588;10.176;2023-02-20T00:43:56;101558.78;;;5.94;79.59
46394;BME280;32099;53.588;10.176;2023-02-20T00:46:21;101548.06;;;5.93;79.46
46394;BME280;32099;53.588;10.176;2023-02-20T00:48:47;101543.69;;;5.92;79.61
46394;BME280;32099;53.588;10.176;2023-02-20T00:51:13;101548.06;;;5.93;79.60
46394;BME280;32099;53.588;10.176;2023-02-20T00:53:38;101537.53;;;5.90;79.73
46394;BME280;32099;53.588;10.176;2023-02-20T00:56:04;101529.66;;;5.86;79.61
46394;BME280;32099;53.588;10.176;2023-02-20T00:58:29;101520.69;;;5.86;79.98
46394;BME280;32099;53.588;10.176;2023-02-20T01:00:54;101518.69;;;5.88;80.27
46394;BME280;32099;53.588;10.176;2023-02-20T01:03:20;101513.03;;;5.91;79.86
46394;BME280;32099;53.588;10.176;2023-02-20T01:05:45;101504.06;;;5.91;80.01
46394;BME280;32099;53.588;10.176;2023-02-20T01:08:11;101509.47;;;5.91;79.86
46394;BME280;32099;53.588;10.176;2023-02-20T01:10:36;101528.13;;;5.94;80.24
46394;BME280;32099;53.588;10.176;2023-02-20T01:13:01;101520.88;;;5.94;80.09
46394;BME280;32099;53.588;10.176;2023-02-20T01:15:27;101510.63;;;5.98;79.75
46394;BME280;32099;53.588;10.176;2023-02-20T01:17:52;101509.66;;;5.99;79.75
46394;BME280;32099;53.588;10.176;2023-02-20T01:20:17;101524.19;;;5.98;79.63
46394;BME280;32099;53.588;10.176;2023-02-20T01:22:42;101514.09;;;6.00;79.74
46394;BME280;32099;53.588;10.176;2023-02-20T01:25:08;101502.28;;;6.01;79.97
46394;BME280;32099;53.588;10.176;2023-02-20T01:27:33;101503.59;;;6.07;79.70
46394;BME280;32099;53.588;10.176;2023-02-20T01:29:58;101497.19;;;6.08;79.72
46394;BME280;32099;53.588;10.176;2023-02-20T01:32:24;101499.03;;;6.07;79.66
46394;BME280;32099;53.588;10.176;2023-02-20T01:34:49;101504.44;;;6.07;79.96
46394;BME280;32099;53.588;10.176;2023-02-20T01:37:14;101497.31;;;6.06;79.61
46394;BME280;32099;53.588;10.176;2023-02-20T01:39:40;101492.34;;;6.11;79.63
46394;BME280;32099;53.588;10.176;2023-02-20T01:42:06;101482.25;;;6.13;79.43
46394;BME280;32099;53.588;10.176;2023-02-20T01:44:35;101465.84;;;6.15;79.55
46394;BME280;32099;53.588;10.176;2023-02-20T01:47:05;101477.41;;;6.17;79.37
46394;BME280;32099;53.588;10.176;2023-02-20T01:49:35;101471.84;;;6.18;79.70
46394;BME280;32099;53.588;10.176;2023-02-20T01:52:09;101463.88;;;6.17;80.04
46394;BME280;32099;53.588;10.176;2023-02-20T01:54:58;101442.06;;;6.18;79.75
46394;BME280;32099;53.588;10.176;2023-02-20T01:57:29;101445.22;;;6.24;79.44
46394;BME280;32099;53.588;10.176;2023-02-20T02:00:07;101433.25;;;6.26;79.49
46394;BME280;32099;53.588;10.176;2023-02-20T02:02:36;101419.72;;;6.26;79.83
46394;BME280;32099;53.588;10.176;2023-02-20T02:05:06;101417.88;;;6.27;79.42
46394;BME280;32099;53.588;10.176;2023-02-20T02:07:34;101410.59;;;6.27;79.58
46394;BME280;32099;53.588;10.176;2023-02-20T02:10:08;101396.91;;;6.29;79.63
46394;BME280;32099;53.588;10.176;2023-02-20T02:12:36;101390.63;;;6.28;79.55
46394;BME280;32099;53.588;10.176;2023-02-20T02:15:03;101392.47;;;6.28;79.66
46394;BME280;32099;53.588;10.176;2023-02-20T02:20:37;101374.81;;;6.33;79.25
46394;BME280;32099;53.588;10.176;2023-02-20T02:26:32;101383.38;;;6.39;79.49
46394;BME280;32099;53.588;10.176;2023-02-20T02:31:39;101374.09;;;6.41;79.78
46394;BME280;32099;53.588;10.176;2023-02-20T02:37:29;101377.38;;;6.45;79.94
46394;BME280;32099;53.588;10.176;2023-02-20T02:43:17;101387.41;;;6.54;79.75
46394;BME280;32099;53.588;10.176;2023-02-20T02:46:13;101400.81;;;6.56;79.59
46394;BME280;32099;53.588;10.176;2023-02-20T02:48:51;101387.09;;;6.57;79.65
46394;BME280;32099;53.588;10.176;2023-02-20T02:51:22;101376.25;;;6.57;80.17
46394;BME280;32099;53.588;10.176;2023-02-20T02:56:35;101349.59;;;6.53;81.15
46394;BME280;32099;53.588;10.176;2023-02-20T02:59:02;101338.63;;;6.54;81.45
46394;BME280;32099;53.588;10.176;2023-02-20T03:01:29;101321.50;;;6.54;81.73
46394;BME280;32099;53.588;10.176;2023-02-20T03:03:59;101318.22;;;6.50;82.61
46394;BME280;32099;53.588;10.176;2023-02-20T03:06:30;101325.50;;;6.50;82.85
46394;BME280;32099;53.588;10.176;2023-02-20T03:09:05;101324.63;;;6.49;82.93
46394;BME280;32099;53.588;10.176;2023-02-20T03:11:35;101335.47;;;6.49;83.41
46394;BME280;32099;53.588;10.176;2023-02-20T03:14:14;101332.50;;;6.52;83.38
46394;BME280;32099;53.588;10.176;2023-02-20T03:17:13;101342.34;;;6.53;83.48
46394;BME280;32099;53.588;10.176;2023-02-20T03:20:02;101335.31;;;6.51;83.95
46394;BME280;32099;53.588;10.176;2023-02-20T03:22:34;101326.34;;;6.50;83.74
46394;BME280;32099;53.588;10.176;2023-02-20T03:27:36;101339.63;;;6.53;83.72
46394;BME280;32099;53.588;10.176;2023-02-20T03:32:47;101311.09;;;6.59;83.48
46394;BME280;32099;53.588;10.176;2023-02-20T03:35:37;101321.63;;;6.62;83.59
46394;BME280;32099;53.588;10.176;2023-02-20T03:38:24;101325.38;;;6.61;83.26
46394;BME280;32099;53.588;10.176;2023-02-20T03:41:12;101320.63;;;6.63;83.39
46394;BME280;32099;53.588;10.176;2023-02-20T03:43:58;101319.38;;;6.67;83.25
46394;BME280;32099;53.588;10.176;2023-02-20T03:46:27;101313.09;;;6.67;82.71
46394;BME280;32099;53.588;10.176;2023-02-20T03:49:03;101307.25;;;6.71;82.76
46394;BME280;32099;53.588;10.176;2023-02-20T03:51:31;101298.81;;;6.74;82.62
46394;BME280;32099;53.588;10.176;2023-02-20T03:53:56;101300.84;;;6.72;82.68
46394;BME280;32099;53.588;10.176;2023-02-20T03:56:25;101295.25;;;6.74;82.53
46394;BME280;32099;53.588;10.176;2023-02-20T03:58:59;101312.22;;;6.76;82.79
46394;BME280;32099;53.588;10.176;2023-02-20T04:01:28;101322.91;;;6.77;82.62
46394;BME280;32099;53.588;10.176;2023-02-20T04:03:55;101309.22;;;6.79;82.29
46394;BME280;32099;53.588;10.176;2023-02-20T04:06:22;101306.38;;;6.81;82.48
46394;BME280;32099;53.588;10.176;2023-02-20T04:09:02;101302.66;;;6.82;82.24
46394;BME280;32099;53.588;10.176;2023-02-20T04:11:33;101302.50;;;6.83;82.20
46394;BME280;32099;53.588;10.176;2023-02-20T04:14:03;101284.25;;;6.85;82.08
46394;BME280;32099;53.588;10.176;2023-02-20T04:16:31;101284.25;;;6.85;82.11
46394;BME280;32099;53.588;10.176;2023-02-20T04:19:02;101266.28;;;6.84;81.94
46394;BME280;32099;53.588;10.176;2023-02-20T04:21:33;101261.84;;;6.83;81.77
46394;BME280;32099;53.588;10.176;2023-02-20T04:24:05;101261.00;;;6.83;81.69
46394;BME280;32099;53.588;10.176;2023-02-20T04:26:33;101248.28;;;6.83;81.50
46394;BME280;32099;53.588;10.176;2023-02-20T04:28:59;101248.56;;;6.80;81.51
46394;BME280;32099;53.588;10.176;2023-02-20T04:31:25;101233.63;;;6.76;81.60
46394;BME280;32099;53.588;10.176;2023-02-20T04:33:51;101233.06;;;6.72;81.86
46394;BME280;32099;53.588;10.176;2023-02-20T04:36:16;101239.50;;;6.71;81.66
46394;BME280;32099;53.588;10.176;2023-02-20T04:38:42;101234.19;;;6.70;81.81
46394;BME280;32099;53.588;10.176;2023-02-20T04:41:07;101238.63;;;6.71;81.69
46394;BME280;32099;53.588;10.176;2023-02-20T04:43:32;101229.50;;;6.72;81.63
46394;BME280;32099;53.588;10.176;2023-02-20T04:45:58;101217.66;;;6.73;81.58
46394;BME280;32099;53.588;10.176;2023-02-20T04:48:23;101220.34;;;6.73;81.62
46394;BME280;32099;53.588;10.176;2023-02-20T04:50:48;101205.97;;;6.72;81.48
46394;BME280;32099;53.588;10.176;2023-02-20T04:53:13;101196.13;;;6.71;81.67
46394;BME280;32099;53.588;10.176;2023-02-20T04:55:39;101202.81;;;6.67;81.49
46394;BME280;32099;53.588;10.176;2023-02-20T04:58:04;101208.25;;;6.67;81.91
46394;BME280;32099;53.588;10.176;2023-02-20T05:00:29;101211.66;;;6.69;81.98
46394;BME280;32099;53.588;10.176;2023-02-20T05:02:55;101203.53;;;6.69;81.88
46394;BME280;32099;53.588;10.176;2023-02-20T05:05:23;101217.38;;;6.66;82.12
46394;BME280;32099;53.588;10.176;2023-02-20T05:10:26;101217.66;;;6.63;82.46
46394;BME280;32099;53.588;10.176;2023-02-20T05:12:53;101214.81;;;6.64;82.15
46394;BME280;32099;53.588;10.176;2023-02-20T05:15:20;101212.25;;;6.63;82.53
46394;BME280;32099;53.588;10.176;2023-02-20T05:17:46;101204.97;;;6.63;82.51
46394;BME280;32099;53.588;10.176;2023-02-20T05:20:12;101200.81;;;6.69;82.24
46394;BME280;32099;53.588;10.176;2023-02-20T05:22:38;101189.13;;;6.69;82.39
46394;BME280;32099;53.588;10.176;2023-02-20T05:25:03;101182.69;;;6.70;82.76
46394;BME280;32099;53.588;10.176;2023-02-20T05:27:29;101178.16;;;6.70;82.58
46394;BME280;32099;53.588;10.176;2023-02-20T05:29:56;101169.84;;;6.72;82.81
46394;BME280;32099;53.588;10.176;2023-02-20T05:32:23;101160.00;;;6.71;82.67
46394;BME280;32099;53.588;10.176;2023-02-20T05:34:50;101177.53;;;6.76;82.50
46394;BME280;32099;53.588;10.176;2023-02-20T05:37:16;101161.84;;;6.80;82.28
46394;BME280;32099;53.588;10.176;2023-02-20T05:39:43;101153.25;;;6.85;82.22
46394;BME280;32099;53.588;10.176;2023-02-20T05:42:10;101143.13;;;6.87;82.22
46394;BME280;32099;53.588;10.176;2023-02-20T05:44:35;101133.16;;;6.87;82.30
46394;BME280;32099;53.588;10.176;2023-02-20T05:47:01;101134.00;;;6.88;82.17
46394;BME280;32099;53.588;10.176;2023-02-20T05:49:27;101131.16;;;6.89;82.33
46394;BME280;32099;53.588;10.176;2023-02-20T05:51:54;101119.44;;;6.89;82.42
46394;BME280;32099;53.588;10.176;2023-02-20T05:54:21;101110.28;;;6.90;82.18
46394;BME280;32099;53.588;10.176;2023-02-20T05:56:47;101111.13;;;6.90;82.42
46394;BME280;32099;53.588;10.176;2023-02-20T05:59:15;101117.44;;;6.91;82.30
46394;BME280;32099;53.588;10.176;2023-02-20T06:01:43;101107.44;;;6.91;82.47
46394;BME280;32099;53.588;10.176;2023-02-20T06:04:08;101115.44;;;6.93;82.22
46394;BME280;32099;53.588;10.176;2023-02-20T06:06:38;101101.88;;;6.93;82.47
46394;BME280;32099;53.588;10.176;2023-02-20T06:09:06;101086.91;;;6.89;82.38
46394;BME280;32099;53.588;10.176;2023-02-20T06:11:33;101082.19;;;6.91;82.67
46394;BME280;32099;53.588;10.176;2023-02-20T06:13:58;101085.72;;;6.91;82.81
46394;BME280;32099;53.588;10.176;2023-02-20T06:16:24;101091.88;;;6.93;82.61
46394;BME280;32099;53.588;10.176;2023-02-20T06:18:52;101081.88;;;6.94;82.56
46394;BME280;32099;53.588;10.176;2023-02-20T06:21:17;101082.03;;;6.92;82.87
46394;BME280;32099;53.588;10.176;2023-02-20T06:23:44;101085.59;;;6.93;82.78
46394;BME280;32099;53.588;10.176;2023-02-20T06:26:11;101078.59;;;6.90;83.18
46394;BME280;32099;53.588;10.176;2023-02-20T06:28:37;101085.59;;;6.93;83.01
46394;BME280;32099;53.588;10.176;2023-02-20T06:31:02;101080.88;;;6.95;82.96
46394;BME280;32099;53.588;10.176;2023-02-20T06:33:28;101081.72;;;6.95;82.82
46394;BME280;32099;53.588;10.176;2023-02-20T06:35:54;101086.69;;;7.00;82.88
46394;BME280;32099;53.588;10.176;2023-02-20T06:38:19;101086.22;;;7.05;82.72
46394;BME280;32099;53.588;10.176;2023-02-20T06:40:45;101088.81;;;7.06;82.72
46394;BME280;32099;53.588;10.176;2023-02-20T06:43:10;101089.50;;;7.08;82.85
46394;BME280;32099;53.588;10.176;2023-02-20T06:45:35;101088.34;;;7.11;82.69
46394;BME280;32099;53.588;10.176;2023-02-20T06:48:01;101088.91;;;7.15;82.74
46394;BME280;32099;53.588;10.176;2023-02-20T06:50:27;101098.28;;;7.20;82.62
46394;BME280;32099;53.588;10.176;2023-02-20T06:52:53;101093.88;;;7.19;82.73
46394;BME280;32099;53.588;10.176;2023-02-20T06:55:18;101099.28;;;7.19;82.99
46394;BME280;32099;53.588;10.176;2023-02-20T06:57:43;101098.13;;;7.22;82.75
46394;BME280;32099;53.588;10.176;2023-02-20T07:00:09;101087.81;;;7.25;82.72
46394;BME280;32099;53.588;10.176;2023-02-20T07:02:35;101069.53;;;7.28;82.67
46394;BME280;32099;53.588;10.176;2023-02-20T07:05:01;101084.81;;;7.29;82.87
46394;BME280;32099;53.588;10.176;2023-02-20T07:07:27;101086.22;;;7.33;82.85
46394;BME280;32099;53.588;10.176;2023-02-20T07:09:53;101074.38;;;7.34;82.60
46394;BME280;32099;53.588;10.176;2023-02-20T07:12:18;101083.03;;;7.37;82.53
46394;BME280;32099;53.588;10.176;2023-02-20T07:14:43;101081.72;;;7.41;82.95
46394;BME280;32099;53.588;10.176;2023-02-20T07:17:09;101085.13;;;7.44;82.72
46394;BME280;32099;53.588;10.176;2023-02-20T07:19:34;101091.13;;;7.47;82.66
46394;BME280;32099;53.588;10.176;2023-02-20T07:21:59;101083.53;;;7.51;82.67
46394;BME280;32099;53.588;10.176;2023-02-20T07:24:24;101092.38;;;7.53;82.88
46394;BME280;32099;53.588;10.176;2023-02-20T07:26:50;101098.63;;;7.53;82.92
46394;BME280;32099;53.588;10.176;2023-02-20T07:29:15;101081.19;;;7.56;83.21
46394;BME280;32099;53.588;10.176;2023-02-20T07:31:40;101093.59;;;7.59;83.12
46394;BME280;32099;53.588;10.176;2023-02-20T07:34:06;101090.41;;;7.63;83.39
46394;BME280;32099;53.588;10.176;2023-02-20T07:36:32;101074.13;;;7.63;83.63
46394;BME280;32099;53.588;10.176;2023-02-20T07:38:58;101089.25;;;7.66;83.40
46394;BME280;32099;53.588;10.176;2023-02-20T07:41:25;101086.53;;;7.66;83.50
46394;BME280;32099;53.588;10.176;2023-02-20T07:43:53;101087.38;;;7.66;83.86
46394;BME280;32099;53.588;10.176;2023-02-20T07:46:19;101080.22;;;7.65;83.83
46394;BME280;32099;53.588;10.176;2023-02-20T07:48:44;101072.97;;;7.66;84.26
46394;BME280;32099;53.588;10.176;2023-02-20T07:51:09;101078.22;;;7.67;83.97
46394;BME280;32099;53.588;10.176;2023-02-20T07:53:35;101067.91;;;7.71;84.49
46394;BME280;32099;53.588;10.176;2023-02-20T07:56:00;101062.16;;;7.74;84.03
46394;BME280;32099;53.588;10.176;2023-02-20T07:58:25;101050.13;;;7.77;84.18
46394;BME280;32099;53.588;10.176;2023-02-20T08:00:51;101046.59;;;7.76;84.37
46394;BME280;32099;53.588;10.176;2023-02-20T08:03:17;101048.59;;;7.74;84.84
46394;BME280;32099;53.588;10.176;2023-02-20T08:05:43;101044.03;;;7.75;84.23
46394;BME280;32099;53.588;10.176;2023-02-20T08:08:09;101039.13;;;7.78;84.45
46394;BME280;32099;53.588;10.176;2023-02-20T08:10:34;101038.81;;;7.81;84.72
46394;BME280;32099;53.588;10.176;2023-02-20T08:13:00;101040.69;;;7.81;84.67
46394;BME280;32099;53.588;10.176;2023-02-20T08:15:26;101031.84;;;7.79;85.02
46394;BME280;32099;53.588;10.176;2023-02-20T08:17:52;101048.13;;;7.79;85.55
46394;BME280;32099;53.588;10.176;2023-02-20T08:20:17;101049.00;;;7.79;85.41
46394;BME280;32099;53.588;10.176;2023-02-20T08:22:45;101029.81;;;7.81;85.00
46394;BME280;32099;53.588;10.176;2023-02-20T08:25:12;101027.63;;;7.84;85.50
46394;BME280;32099;53.588;10.176;2023-02-20T08:27:45;101029.34;;;7.85;85.70
46394;BME280;32099;53.588;10.176;2023-02-20T08:30:20;101029.34;;;7.85;85.42
46394;BME280;32099;53.588;10.176;2023-02-20T08:32:48;101026.47;;;7.87;85.63
46394;BME280;32099;53.588;10.176;2023-02-20T08:35:14;101019.88;;;7.90;85.77
46394;BME280;32099;53.588;10.176;2023-02-20T08:37:40;101008.16;;;7.89;86.12
46394;BME280;32099;53.588;10.176;2023-02-20T08:40:05;101010.72;;;7.91;85.44
46394;BME280;32099;53.588;10.176;2023-02-20T08:42:32;101004.09;;;7.93;85.67
46394;BME280;32099;53.588;10.176;2023-02-20T08:44:58;101011.41;;;7.93;86.13
46394;BME280;32099;53.588;10.176;2023-02-20T08:47:23;101005.13;;;7.92;86.56
46394;BME280;32099;53.588;10.176;2023-02-20T08:49:48;101008.72;;;7.93;86.28
46394;BME280;32099;53.588;10.176;2023-02-20T08:52:14;101000.69;;;7.91;86.62
46394;BME280;32099;53.588;10.176;2023-02-20T08:54:39;101003.94;;;7.95;86.14
46394;BME280;32099;53.588;10.176;2023-02-20T08:57:09;100990.75;;;8.00;86.53
46394;BME280;32099;53.588;10.176;2023-02-20T08:59:34;100993.47;;;8.00;86.13
46394;BME280;32099;53.588;10.176;2023-02-20T09:02:01;100991.28;;;8.03;86.98
46394;BME280;32099;53.588;10.176;2023-02-20T09:04:26;100974.66;;;8.07;87.66
46394;BME280;32099;53.588;10.176;2023-02-20T09:06:51;100970.06;;;8.07;87.72
46394;BME280;32099;53.588;10.176;2023-02-20T09:09:17;100969.84;;;8.00;88.73
46394;BME280;32099;53.588;10.176;2023-02-20T09:11:42;100958.84;;;8.02;89.08
46394;BME280;32099;53.588;10.176;2023-02-20T09:14:08;100954.97;;;8.05;89.36
46394;BME280;32099;53.588;10.176;2023-02-20T09:16:33;100955.13;;;8.03;89.95
46394;BME280;32099;53.588;10.176;2023-02-20T09:18:58;100949.22;;;8.08;90.44
46394;BME280;32099;53.588;10.176;2023-02-20T09:21:24;100949.03;;;8.09;90.49
46394;BME280;32099;53.588;10.176;2023-02-20T09:23:52;100945.13;;;8.12;90.30
46394;BME280;32099;53.588;10.176;2023-02-20T09:26:17;100943.13;;;8.14;90.57
46394;BME280;32099;53.588;10.176;2023-02-20T09:28:43;100943.81;;;8.16;91.18
46394;BME280;32099;53.588;10.176;2023-02-20T09:31:08;100954.84;;;8.14;91.98
46394;BME280;32099;53.588;10.176;2023-02-20T09:33:33;100943.81;;;8.16;91.23
46394;BME280;32099;53.588;10.176;2023-02-20T09:35:58;100949.94;;;8.18;91.78
46394;BME280;32099;53.588;10.176;2023-02-20T09:38:24;100946.22;;;8.19;91.70
46394;BME280;32099;53.588;10.176;2023-02-20T09:40:58;100944.34;;;8.19;92.12
46394;BME280;32099;53.588;10.176;2023-02-20T09:46:17;100928.41;;;8.25;92.67
46394;BME280;32099;53.588;10.176;2023-02-20T09:48:57;100919.56;;;8.23;92.64
46394;BME280;32099;53.588;10.176;2023-02-20T09:51:26;100938.25;;;8.26;92.24
46394;BME280;32099;53.588;10.176;2023-02-20T09:56:30;100917.56;;;8.33;91.78
46394;BME280;32099;53.588;10.176;2023-02-20T10:01:31;100923.03;;;8.41;92.50
46394;BME280;32099;53.588;10.176;2023-02-20T10:06:26;100917.59;;;8.41;92.25
46394;BME280;32099;53.588;10.176;2023-02-20T10:08:53;100917.94;;;8.38;93.33
46394;BME280;32099;53.588;10.176;2023-02-20T10:16:59;100913.34;;;8.47;92.66
46394;BME280;32099;53.588;10.176;2023-02-20T10:25:34;100908.84;;;8.56;92.59
46394;BME280;32099;53.588;10.176;2023-02-20T10:28:21;100924.81;;;8.59;91.72
46394;BME280;32099;53.588;10.176;2023-02-20T10:33:30;100920.72;;;8.63;92.39
46394;BME280;32099;53.588;10.176;2023-02-20T10:39:12;100936.25;;;8.79;91.42
46394;BME280;32099;53.588;10.176;2023-02-20T10:41:41;100912.63;;;8.79;91.87
46394;BME280;32099;53.588;10.176;2023-02-20T10:44:27;100903.13;;;8.84;91.83
46394;BME280;32099;53.588;10.176;2023-02-20T10:46:59;100894.47;;;8.88;91.93
46394;BME280;32099;53.588;10.176;2023-02-20T10:49:35;100897.50;;;8.93;91.18
46394;BME280;32099;53.588;10.176;2023-02-20T10:52:03;100895.66;;;9.02;90.11
46394;BME280;32099;53.588;10.176;2023-02-20T10:54:42;100880.72;;;9.06;90.60
46394;BME280;32099;53.588;10.176;2023-02-20T10:57:33;100897.19;;;9.13;89.64
46394;BME280;32099;53.588;10.176;2023-02-20T11:02:47;100915.38;;;9.21;89.59
46394;BME280;32099;53.588;10.176;2023-02-20T11:05:21;100924.72;;;9.26;89.32
46394;BME280;32099;53.588;10.176;2023-02-20T11:07:51;100910.09;;;9.27;88.83
46394;BME280;32099;53.588;10.176;2023-02-20T11:10:17;100917.94;;;9.31;88.99
46394;BME280;32099;53.588;10.176;2023-02-20T11:12:47;100911.97;;;9.35;88.15
46394;BME280;32099;53.588;10.176;2023-02-20T11:15:16;100910.78;;;9.38;88.39
46394;BME280;32099;53.588;10.176;2023-02-20T11:17:45;100896.50;;;9.44;88.05
46394;BME280;32099;53.588;10.176;2023-02-20T11:22:55;100891.38;;;9.41;88.01
46394;BME280;32099;53.588;10.176;2023-02-20T11:25:34;100902.78;;;9.45;88.13
46394;BME280;32099;53.588;10.176;2023-02-20T11:30:37;100899.03;;;9.54;87.42
46394;BME280;32099;53.588;10.176;2023-02-20T11:33:10;100901.25;;;9.59;86.62
46394;BME280;32099;53.588;10.176;2023-02-20T11:35:46;100900.03;;;9.61;86.68
46394;BME280;32099;53.588;10.176;2023-02-20T11:40:38;100895.44;;;9.62;86.55
46394;BME280;32099;53.588;10.176;2023-02-20T11:45:41;100885.91;;;9.66;86.04
46394;BME280;32099;53.588;10.176;2023-02-20T11:48:16;100877.06;;;9.72;85.71
46394;BME280;32099;53.588;10.176;2023-02-20T11:50:44;100870.72;;;9.80;85.86
46394;BME280;32099;53.588;10.176;2023-02-20T11:53:17;100853.50;;;9.87;84.98
46394;BME280;32099;53.588;10.176;2023-02-20T11:55:47;100843.81;;;9.85;84.95
46394;BME280;32099;53.588;10.176;2023-02-20T11:58:23;100857.44;;;9.85;84.66
46394;BME280;32099;53.588;10.176;2023-02-20T12:00:51;100837.66;;;9.91;84.77
46394;BME280;32099;53.588;10.176;2023-02-20T12:03:20;100845.66;;;9.93;84.45
46394;BME280;32099;53.588;10.176;2023-02-20T12:05:48;100841.72;;;9.95;84.22
46394;BME280;32099;53.588;10.176;2023-02-20T12:10:59;100853.59;;;10.02;83.97
46394;BME280;32099;53.588;10.176;2023-02-20T12:13:30;100845.28;;;10.04;83.37
46394;BME280;32099;53.588;10.176;2023-02-20T12:30:14;100827.50;;;10.16;82.44
46394;BME280;32099;53.588;10.176;2023-02-20T12:33:17;100824.59;;;10.18;82.53
46394;BME280;32099;53.588;10.176;2023-02-20T12:36:20;100821.19;;;10.16;82.62
46394;BME280;32099;53.588;10.176;2023-02-20T12:38:58;100822.69;;;10.18;82.23
46394;BME280;32099;53.588;10.176;2023-02-20T12:41:42;100823.75;;;10.17;82.19
46394;BME280;32099;53.588;10.176;2023-02-20T12:44:18;100802.44;;;10.21;81.81
46394;BME280;32099;53.588;10.176;2023-02-20T12:46:49;100821.31;;;10.23;81.94
46394;BME280;32099;53.588;10.176;2023-02-20T12:50:25;100808.38;;;10.25;81.74
46394;BME280;32099;53.588;10.176;2023-02-20T12:52:35;100813.28;;;10.29;81.70
46394;BME280;32099;53.588;10.176;2023-02-20T12:57:50;100806.47;;;10.33;81.86
46394;BME280;32099;53.588;10.176;2023-02-20T13:00:31;100795.72;;;10.40;81.74
46394;BME280;32099;53.588;10.176;2023-02-20T13:03:10;100803.22;;;10.38;81.45
46394;BME280;32099;53.588;10.176;2023-02-20T13:05:41;100804.91;;;10.39;81.29
46394;BME280;32099;53.588;10.176;2023-02-20T13:08:20;100814.13;;;10.38;81.01
46394;BME280;32099;53.588;10.176;2023-02-20T13:10:55;100806.78;;;10.39;80.47
46394;BME280;32099;53.588;10.176;2023-02-20T13:13:23;100810.84;;;10.43;81.13
46394;BME280;32099;53.588;10.176;2023-02-20T13:21:15;100798.25;;;10.42;81.05
46394;BME280;32099;53.588;10.176;2023-02-20T13:23:44;100805.22;;;10.44;81.22
46394;BME280;32099;53.588;10.176;2023-02-20T13:26:42;100805.03;;;10.46;80.67
46394;BME280;32099;53.588;10.176;2023-02-20T13:34:28;100802.81;;;10.49;81.36
46394;BME280;32099;53.588;10.176;2023-02-20T13:36:59;100807.38;;;10.49;81.06
46394;BME280;32099;53.588;10.176;2023-02-20T13:41:57;100808.81;;;10.45;81.28
46394;BME280;32099;53.588;10.176;2023-02-20T14:00:21;100802.81;;;10.49;81.82
46394;BME280;32099;53.588;10.176;2023-02-20T14:02:50;100800.75;;;10.52;81.58
46394;BME280;32099;53.588;10.176;2023-02-20T14:05:17;100817.25;;;10.50;81.42
46394;BME280;32099;53.588;10.176;2023-02-20T14:07:44;100792.06;;;10.48;81.64
46394;BME280;32099;53.588;10.176;2023-02-20T14:10:15;100800.25;;;10.48;81.37
46394;BME280;32099;53.588;10.176;2023-02-20T14:13:02;100794.63;;;10.49;81.80
46394;BME280;32099;53.588;10.176;2023-02-20T14:15:32;100801.59;;;10.52;81.80
46394;BME280;32099;53.588;10.176;2023-02-20T14:18:15;100797.81;;;10.53;81.58
46394;BME280;32099;53.588;10.176;2023-02-20T14:20:43;100785.03;;;10.54;81.55
46394;BME280;32099;53.588;10.176;2023-02-20T14:23:16;100807.72;;;10.54;81.52
46394;BME280;32099;53.588;10.176;2023-02-20T14:25:51;100801.22;;;10.55;81.75
46394;BME280;32099;53.588;10.176;2023-02-20T14:28:23;100797.81;;;10.53;81.82
46394;BME280;32099;53.588;10.176;2023-02-20T14:34:16;100799.16;;;10.57;81.82
46394;BME280;32099;53.588;10.176;2023-02-20T14:42:00;100796.59;;;10.56;82.24
46394;BME280;32099;53.588;10.176;2023-02-20T14:44:27;100788.44;;;10.56;82.67
46394;BME280;32099;53.588;10.176;2023-02-20T14:47:04;100797.47;;;10.56;82.78
46394;BME280;32099;53.588;10.176;2023-02-20T14:49:33;100808.19;;;10.58;83.47
46394;BME280;32099;53.588;10.176;2023-02-20T14:52:03;100799.34;;;10.56;83.56
46394;BME280;32099;53.588;10.176;2023-02-20T14:54:36;100801.78;;;10.51;84.19
46394;BME280;32099;53.588;10.176;2023-02-20T14:57:03;100794.31;;;10.44;84.51
46394;BME280;32099;53.588;10.176;2023-02-20T14:59:35;100796.34;;;10.42;84.72
46394;BME280;32099;53.588;10.176;2023-02-20T15:04:53;100810.19;;;10.41;85.40